Brooklyn, WI (53521)

5:22 AM CDT on July 26, 2016 (GMT -0500)
West Brooklyn Heights | | Change Station

Elev 981 ft 42.86 °N, 89.38 °W | Updated 3 seconds ago

Clear
Clear
63.1 °F
Feels Like 63.1 °F
N
0.0
Wind Variable Wind from North
Gusts 0.0 mph

Today
High -- | Low -- °F
--% Chance of Precip.
Yesterday
High -- | Low -- °F
Precip. -- in
Pressure 30.06 in
Visibility 5.0 miles
Clouds Clear
Dew Point 63 °F
Humidity 99%
Rainfall 0.00 in
Snow Depth Not available.
5:43 AM 8:24 PM
Waning Gibbous, 56% visible
METAR KMSN 260953Z AUTO 00000KT 5SM BR CLR 17/17 A3007 RMK AO2 SLP178 T01720167
Pressure 30.06 in
Visibility 5.0 miles
Clouds Clear
Dew Point 63 °F
Humidity 99%
Rainfall 0.00 in
Snow Depth Not available.
5:43 AM 8:24 PM
Waning Gibbous, 56% visible
METAR KMSN 260953Z AUTO 00000KT 5SM BR CLR 17/17 A3007 RMK AO2 SLP178 T01720167

10-Day Weather Forecast

Almanac

Astronomy

Jul. 26, 2016 Rise Set
Actual Time
Civil Twilight
Nautical Twilight
Astronomical Twilight
Moon
Length of Visible Light
Length of Day
Tomorrow will be .
, % of the Moon is Illuminated

Today's Extremes

State Highs State Lows

Community

WunderPhotos

Upload Photos

1,927,557 photos uploaded!

WunderBlog® & News

Nearby

Air Quality

  Air Quality AQ Index Pollutant
Not available.

Snow Depth

Station Depth Elevation

Earthquake Activity

City Distance Mag. Time & Date
Minimum magnitude displayed is 2.5.

Coastal Water Temperatures

Place Temperature

Stations

Nearby Weather Stations

Station Location Temp. Windchill Dew Point Humidity Wind Precip. Elev Updated Type
                   

Watches & Warnings

There are currently no watches in effect.